Airfield :
LOGIN :

Register | Disclaimer

   EN    FR    IT 

 










Legend :    VFR   Marginal VFR   IFR   Intensive IFR   Very Intensive IFR
Visi :
Ceiling :
>= 8 km
>= 3000ft
5 to 8 km
1000 to 3000 ft
1500m to 5 km
500 to 1000 ft
800 to 1500m
200 to 500 ft
< 800m
< 200 ft
Symbols :   Thunderstorms  Fog  Heavy snow  Heavy precipitations  Wind > 20 kt
SIGMETs :     Misc.  Thunderstorms  Icing  Turbulence  Mountain Waves  Volcanic Ashes







- Airport Elevation : 13 ft
- IATA code : CAG


LIEE - Cagliari Elmas

CURRENT METAR :
  • 141450Z 28008KT 250V310 9999 SCT030 SCT050 16/10 Q1017

EXPIRED METARs :
  • 141420Z 30007KT 9999 SCT030 SCT050 16/10 Q1017
  • 141350Z 28008KT 9999 SCT030 SCT050 16/10 Q1017
  • 141320Z 27012KT 240V300 9999 SCT030 SCT050 16/10 Q1018
  • 141250Z 28009KT 9999 SCT030 16/10 Q1018
  • 141220Z 27013KT 9999 SCT030 15/10 Q1019
  • 141150Z 28011KT 9999 BKN035 16/09 Q1019

TAF TAF LIEE
Valid from the 14 at 12:00 until the 15 at 12:00 UTC


141100Z 1412/1512 26013KT 9999 SCT030
No reported NOTAMs for that airfield.
1 SIGMET reported for the Roma FIR (LIRR) :
 
Severe turbulence
LIRR SIGMET 7 VALID 141400/141600 LIIB
LIRR ROMA FIR SEV TURB FCST WI N4149 E01305 - N4037 E01521 - N4107 E01507 - N4130 E01416 - N4255 E01301 - N4328 E01312 - N4336 E01053 - N4149 E01305 FL020/100 STNR NC=



MET'MAP, your aeronautical weather chart ! - Copyright ORBIFLY December 2007 - Disclaimer

ORBIFLY MET'MAP TEAM :

Programming & Development : Alexandra Zaïnal
Concept & Development : Baudouin d'Aumeries
Co-Development & Prog : Marc-Olivier Méhu
Technical & hardware support : Manuel Goepfert

Contact : metmap@orbifly.com




SOURCES & CREDITS :

   NOAA